If you wish to contribute or participate in the discussions about articles you are invited to join SKYbrary as a registered user

 Actions

Anaktuvuk Pass Airport

From SKYbrary Wiki

PAKP
Airport
ICAO: PAKP – IATA: AKP
Summary
Name Anaktuvuk Pass Airport
Region North America
Territory Alaska US.gif
Location , Alaska
Serving Anaktuvuk Pass
Elevation 640.69 m
2,102 ft
2,102 ft640.69 m
Type medium airport
Coordinates 68° 8' 0.96", -151° 44' 34.8"
Runways
Designator Length Width Surface ROPS
2/20 1463 m4,799.869 ft 30 m98.425 ft GRAVEL-G /
METAR
Observation PAKP 131956Z AUTO 00000KT 10SM CLR M11/M12 A2972 RMK AO2 SLP124 T11061117 FZRANO
Station Anaktuvuk Pass, Anaktuvuk Pass Airport
Date/Time 13 December 2017 19:56:00
Wind direction
Wind speed 00 kts
Lowest cloud amount n/a
Temperature
Dew point
Humidity 91%
QNH hPa
Weather condition n/a